Terminal Aerodrome Forecast
Issued by NWS

Home | Current Version | Previous Version | Text Only | Print | Product List | Glossary On
Versions: 1 2 3 4 5 6 7 8 9 10 11 12
212
FTUS42 KMLB 222322
TAFFPR
TAF
KFPR 222322Z 2300/2324 11007KT P6SM SKC
     FM230100 03005KT P6SM FEW020 SCT050
     FM230700 05007KT P6SM VCSH BKN025
     FM231500 07016G24KT P6SM VCSH BKN030=

USA.gov is the U.S. government's official web portal to all federal, state and local government web resources and services.